Brandon, United Kingdom
Current Conditions -  °F | °C
As of 1:48 AM on Friday 28 Nov 2014 (Local Time) from EGUL Reporting Station
Overcast Overcast  
Wind Chill: 50°   Ceiling: 1900
Heat Index: 50°   Visibility: 6mi
Dew Point: 50°   Wind: 8mph
Humidity: 100%   Direction: 80°E
Pressure: 29.62"   Gusts: NA
Location:  52.45°N, 0.63°E
Report Text: EGUL 280148Z AUTO 08007KT 9999 SCT011 BKN019 BKN024 BKN044 OVC160 10/10 A2962 RMK AO2 CIG 010V025
Loading
Personal Weather Stations






























Interactive Weather Map New forecast layout! Learn more

10-Day Weather Forecast

Advertisements
Track Severe Weather on mobile